sensor_id;sensor_type;location;lat;lon;timestamp;P1;durP1;ratioP1;P2;durP2;ratioP2
66970;SDS011;53901;51.466;-2.588;2023-05-29T00:01:12;11.75;;;3.90;;
66970;SDS011;53901;51.466;-2.588;2023-05-29T00:03:37;12.75;;;4.35;;
66970;SDS011;53901;51.466;-2.588;2023-05-29T00:06:03;14.25;;;3.90;;
66970;SDS011;53901;51.466;-2.588;2023-05-29T00:08:28;12.02;;;3.80;;
66970;SDS011;53901;51.466;-2.588;2023-05-29T00:10:54;12.07;;;4.18;;
66970;SDS011;53901;51.466;-2.588;2023-05-29T00:13:20;12.70;;;4.18;;
66970;SDS011;53901;51.466;-2.588;2023-05-29T00:15:45;10.88;;;3.75;;
66970;SDS011;53901;51.466;-2.588;2023-05-29T00:18:11;13.35;;;4.82;;
66970;SDS011;53901;51.466;-2.588;2023-05-29T00:20:36;15.75;;;4.78;;
66970;SDS011;53901;51.466;-2.588;2023-05-29T00:23:03;15.70;;;5.00;;
66970;SDS011;53901;51.466;-2.588;2023-05-29T00:25:30;11.95;;;4.63;;
66970;SDS011;53901;51.466;-2.588;2023-05-29T00:27:56;16.33;;;4.80;;
66970;SDS011;53901;51.466;-2.588;2023-05-29T00:30:22;13.75;;;4.55;;
66970;SDS011;53901;51.466;-2.588;2023-05-29T00:32:47;15.75;;;3.78;;
66970;SDS011;53901;51.466;-2.588;2023-05-29T00:35:12;14.40;;;3.97;;
66970;SDS011;53901;51.466;-2.588;2023-05-29T00:37:38;13.98;;;4.10;;
66970;SDS011;53901;51.466;-2.588;2023-05-29T00:40:03;13.88;;;4.35;;
66970;SDS011;53901;51.466;-2.588;2023-05-29T00:42:29;16.10;;;4.18;;
66970;SDS011;53901;51.466;-2.588;2023-05-29T00:44:54;15.27;;;3.70;;
66970;SDS011;53901;51.466;-2.588;2023-05-29T00:47:20;14.63;;;3.88;;
66970;SDS011;53901;51.466;-2.588;2023-05-29T00:49:45;24.70;;;3.40;;
66970;SDS011;53901;51.466;-2.588;2023-05-29T00:52:11;19.60;;;3.72;;
66970;SDS011;53901;51.466;-2.588;2023-05-29T00:54:37;16.65;;;3.25;;
66970;SDS011;53901;51.466;-2.588;2023-05-29T00:57:03;13.30;;;3.33;;
66970;SDS011;53901;51.466;-2.588;2023-05-29T00:59:30;12.90;;;3.47;;
66970;SDS011;53901;51.466;-2.588;2023-05-29T01:01:56;11.70;;;3.03;;
66970;SDS011;53901;51.466;-2.588;2023-05-29T01:04:23;13.35;;;2.90;;
66970;SDS011;53901;51.466;-2.588;2023-05-29T01:06:53;13.75;;;3.10;;
66970;SDS011;53901;51.466;-2.588;2023-05-29T01:09:18;13.32;;;3.10;;
66970;SDS011;53901;51.466;-2.588;2023-05-29T01:12:19;20.40;;;3.60;;
66970;SDS011;53901;51.466;-2.588;2023-05-29T01:25:58;16.73;;;3.17;;
66970;SDS011;53901;51.466;-2.588;2023-05-29T01:28:51;14.20;;;2.80;;
66970;SDS011;53901;51.466;-2.588;2023-05-29T01:31:19;11.75;;;2.65;;
66970;SDS011;53901;51.466;-2.588;2023-05-29T01:33:55;16.58;;;2.92;;
66970;SDS011;53901;51.466;-2.588;2023-05-29T01:36:22;10.20;;;2.28;;
66970;SDS011;53901;51.466;-2.588;2023-05-29T01:38:48;12.52;;;2.70;;
66970;SDS011;53901;51.466;-2.588;2023-05-29T01:41:14;13.70;;;2.58;;
66970;SDS011;53901;51.466;-2.588;2023-05-29T01:43:40;10.10;;;2.42;;
66970;SDS011;53901;51.466;-2.588;2023-05-29T01:46:06;16.90;;;2.58;;
66970;SDS011;53901;51.466;-2.588;2023-05-29T01:48:32;10.10;;;2.63;;
66970;SDS011;53901;51.466;-2.588;2023-05-29T01:50:57;9.55;;;2.55;;
66970;SDS011;53901;51.466;-2.588;2023-05-29T01:53:23;9.45;;;2.50;;
66970;SDS011;53901;51.466;-2.588;2023-05-29T01:55:49;12.88;;;2.45;;
66970;SDS011;53901;51.466;-2.588;2023-05-29T01:58:15;10.05;;;2.60;;
66970;SDS011;53901;51.466;-2.588;2023-05-29T02:00:41;12.75;;;2.47;;
66970;SDS011;53901;51.466;-2.588;2023-05-29T02:03:07;8.52;;;2.30;;
66970;SDS011;53901;51.466;-2.588;2023-05-29T02:05:32;9.48;;;2.15;;
66970;SDS011;53901;51.466;-2.588;2023-05-29T02:07:57;11.77;;;2.30;;
66970;SDS011;53901;51.466;-2.588;2023-05-29T02:10:23;11.15;;;2.25;;
66970;SDS011;53901;51.466;-2.588;2023-05-29T02:12:48;16.63;;;2.65;;
66970;SDS011;53901;51.466;-2.588;2023-05-29T02:15:13;13.38;;;2.50;;
66970;SDS011;53901;51.466;-2.588;2023-05-29T02:17:39;9.75;;;2.58;;
66970;SDS011;53901;51.466;-2.588;2023-05-29T02:20:06;9.13;;;2.08;;
66970;SDS011;53901;51.466;-2.588;2023-05-29T02:22:32;13.05;;;2.45;;
66970;SDS011;53901;51.466;-2.588;2023-05-29T02:24:57;12.45;;;2.58;;
66970;SDS011;53901;51.466;-2.588;2023-05-29T02:27:23;13.60;;;2.22;;
66970;SDS011;53901;51.466;-2.588;2023-05-29T02:29:48;18.83;;;2.92;;
66970;SDS011;53901;51.466;-2.588;2023-05-29T02:32:14;9.05;;;2.80;;
66970;SDS011;53901;51.466;-2.588;2023-05-29T02:34:39;12.65;;;2.78;;
66970;SDS011;53901;51.466;-2.588;2023-05-29T02:37:05;12.88;;;2.20;;
66970;SDS011;53901;51.466;-2.588;2023-05-29T02:39:30;12.40;;;2.60;;
66970;SDS011;53901;51.466;-2.588;2023-05-29T02:41:55;12.55;;;2.95;;
66970;SDS011;53901;51.466;-2.588;2023-05-29T02:44:21;15.60;;;2.88;;
66970;SDS011;53901;51.466;-2.588;2023-05-29T02:46:46;9.80;;;2.35;;
66970;SDS011;53901;51.466;-2.588;2023-05-29T02:49:11;10.13;;;2.13;;
66970;SDS011;53901;51.466;-2.588;2023-05-29T02:51:37;10.75;;;2.33;;
66970;SDS011;53901;51.466;-2.588;2023-05-29T02:54:02;13.10;;;2.50;;
66970;SDS011;53901;51.466;-2.588;2023-05-29T02:56:28;11.57;;;3.22;;
66970;SDS011;53901;51.466;-2.588;2023-05-29T02:58:53;13.45;;;3.00;;
66970;SDS011;53901;51.466;-2.588;2023-05-29T03:01:19;10.73;;;3.00;;
66970;SDS011;53901;51.466;-2.588;2023-05-29T03:03:44;9.65;;;2.40;;
66970;SDS011;53901;51.466;-2.588;2023-05-29T03:06:10;16.02;;;2.67;;
66970;SDS011;53901;51.466;-2.588;2023-05-29T03:08:37;14.00;;;2.42;;
66970;SDS011;53901;51.466;-2.588;2023-05-29T03:11:07;7.97;;;2.40;;
66970;SDS011;53901;51.466;-2.588;2023-05-29T03:13:35;9.18;;;2.35;;
66970;SDS011;53901;51.466;-2.588;2023-05-29T03:16:01;13.98;;;2.28;;
66970;SDS011;53901;51.466;-2.588;2023-05-29T03:18:26;8.18;;;2.42;;
66970;SDS011;53901;51.466;-2.588;2023-05-29T03:20:52;11.25;;;2.30;;
66970;SDS011;53901;51.466;-2.588;2023-05-29T03:23:19;9.57;;;2.20;;
66970;SDS011;53901;51.466;-2.588;2023-05-29T03:25:44;12.20;;;2.42;;
66970;SDS011;53901;51.466;-2.588;2023-05-29T03:28:10;13.75;;;2.35;;
66970;SDS011;53901;51.466;-2.588;2023-05-29T03:30:35;13.35;;;2.65;;
66970;SDS011;53901;51.466;-2.588;2023-05-29T03:33:00;10.80;;;2.63;;
66970;SDS011;53901;51.466;-2.588;2023-05-29T03:35:28;19.13;;;2.25;;
66970;SDS011;53901;51.466;-2.588;2023-05-29T03:37:57;8.60;;;2.40;;
66970;SDS011;53901;51.466;-2.588;2023-05-29T03:40:22;12.63;;;2.28;;
66970;SDS011;53901;51.466;-2.588;2023-05-29T03:42:48;8.20;;;2.35;;
66970;SDS011;53901;51.466;-2.588;2023-05-29T03:45:13;11.65;;;2.50;;
66970;SDS011;53901;51.466;-2.588;2023-05-29T03:47:38;6.63;;;2.28;;
66970;SDS011;53901;51.466;-2.588;2023-05-29T03:50:04;9.73;;;1.92;;
66970;SDS011;53901;51.466;-2.588;2023-05-29T03:52:30;12.15;;;2.58;;
66970;SDS011;53901;51.466;-2.588;2023-05-29T03:54:55;11.00;;;2.20;;
66970;SDS011;53901;51.466;-2.588;2023-05-29T03:57:21;8.93;;;2.38;;
66970;SDS011;53901;51.466;-2.588;2023-05-29T03:59:46;15.77;;;2.63;;
66970;SDS011;53901;51.466;-2.588;2023-05-29T04:02:11;11.02;;;2.50;;
66970;SDS011;53901;51.466;-2.588;2023-05-29T04:04:37;10.93;;;2.50;;
66970;SDS011;53901;51.466;-2.588;2023-05-29T04:07:04;14.35;;;2.60;;
66970;SDS011;53901;51.466;-2.588;2023-05-29T04:09:30;9.90;;;2.13;;
66970;SDS011;53901;51.466;-2.588;2023-05-29T04:11:55;16.23;;;2.67;;
66970;SDS011;53901;51.466;-2.588;2023-05-29T04:14:20;11.85;;;2.53;;
66970;SDS011;53901;51.466;-2.588;2023-05-29T04:16:46;8.02;;;2.30;;
66970;SDS011;53901;51.466;-2.588;2023-05-29T04:19:11;9.77;;;2.40;;
66970;SDS011;53901;51.466;-2.588;2023-05-29T04:21:36;11.07;;;2.25;;
66970;SDS011;53901;51.466;-2.588;2023-05-29T04:24:02;8.30;;;2.00;;
66970;SDS011;53901;51.466;-2.588;2023-05-29T04:26:27;14.02;;;2.70;;
66970;SDS011;53901;51.466;-2.588;2023-05-29T04:28:53;11.95;;;2.28;;
66970;SDS011;53901;51.466;-2.588;2023-05-29T04:31:22;13.02;;;2.63;;
66970;SDS011;53901;51.466;-2.588;2023-05-29T04:33:50;9.38;;;2.33;;
66970;SDS011;53901;51.466;-2.588;2023-05-29T04:36:19;14.05;;;2.85;;
66970;SDS011;53901;51.466;-2.588;2023-05-29T04:38:48;9.95;;;2.53;;
66970;SDS011;53901;51.466;-2.588;2023-05-29T04:41:16;11.40;;;2.63;;
66970;SDS011;53901;51.466;-2.588;2023-05-29T04:43:41;10.15;;;2.50;;
66970;SDS011;53901;51.466;-2.588;2023-05-29T04:46:07;12.55;;;2.53;;
66970;SDS011;53901;51.466;-2.588;2023-05-29T04:48:37;13.93;;;2.85;;
66970;SDS011;53901;51.466;-2.588;2023-05-29T04:51:05;13.07;;;2.65;;
66970;SDS011;53901;51.466;-2.588;2023-05-29T04:53:31;11.13;;;2.50;;
66970;SDS011;53901;51.466;-2.588;2023-05-29T04:55:56;16.40;;;2.67;;
66970;SDS011;53901;51.466;-2.588;2023-05-29T04:58:22;13.00;;;3.00;;
66970;SDS011;53901;51.466;-2.588;2023-05-29T05:00:49;15.88;;;2.92;;
66970;SDS011;53901;51.466;-2.588;2023-05-29T05:03:14;12.50;;;2.65;;
66970;SDS011;53901;51.466;-2.588;2023-05-29T05:05:41;13.07;;;2.75;;
66970;SDS011;53901;51.466;-2.588;2023-05-29T05:08:08;13.38;;;2.85;;
66970;SDS011;53901;51.466;-2.588;2023-05-29T05:10:34;11.43;;;2.67;;
66970;SDS011;53901;51.466;-2.588;2023-05-29T05:13:00;14.82;;;3.15;;
66970;SDS011;53901;51.466;-2.588;2023-05-29T05:15:27;14.32;;;2.95;;
66970;SDS011;53901;51.466;-2.588;2023-05-29T05:17:53;15.18;;;2.95;;
66970;SDS011;53901;51.466;-2.588;2023-05-29T05:20:18;11.55;;;2.92;;
66970;SDS011;53901;51.466;-2.588;2023-05-29T05:22:44;10.75;;;2.70;;
66970;SDS011;53901;51.466;-2.588;2023-05-29T05:25:09;15.57;;;2.85;;
66970;SDS011;53901;51.466;-2.588;2023-05-29T05:27:36;13.38;;;2.88;;
66970;SDS011;53901;51.466;-2.588;2023-05-29T05:30:05;8.73;;;2.53;;
66970;SDS011;53901;51.466;-2.588;2023-05-29T05:32:31;12.15;;;2.80;;
66970;SDS011;53901;51.466;-2.588;2023-05-29T05:34:57;16.25;;;3.67;;
66970;SDS011;53901;51.466;-2.588;2023-05-29T05:37:22;11.45;;;2.50;;
66970;SDS011;53901;51.466;-2.588;2023-05-29T05:39:48;16.38;;;3.00;;
66970;SDS011;53901;51.466;-2.588;2023-05-29T05:42:15;12.02;;;3.13;;
66970;SDS011;53901;51.466;-2.588;2023-05-29T05:44:41;12.48;;;2.70;;
66970;SDS011;53901;51.466;-2.588;2023-05-29T05:47:06;16.30;;;2.80;;
66970;SDS011;53901;51.466;-2.588;2023-05-29T05:49:31;10.82;;;2.90;;
66970;SDS011;53901;51.466;-2.588;2023-05-29T05:51:57;12.70;;;2.90;;
66970;SDS011;53901;51.466;-2.588;2023-05-29T05:54:22;18.33;;;2.80;;
66970;SDS011;53901;51.466;-2.588;2023-05-29T05:56:47;10.38;;;2.72;;
66970;SDS011;53901;51.466;-2.588;2023-05-29T05:59:13;11.27;;;2.60;;
66970;SDS011;53901;51.466;-2.588;2023-05-29T06:01:38;13.00;;;2.78;;
66970;SDS011;53901;51.466;-2.588;2023-05-29T06:04:05;13.50;;;2.92;;
66970;SDS011;53901;51.466;-2.588;2023-05-29T06:06:30;11.70;;;2.42;;
66970;SDS011;53901;51.466;-2.588;2023-05-29T06:08:56;11.95;;;2.80;;
66970;SDS011;53901;51.466;-2.588;2023-05-29T06:11:23;14.63;;;2.90;;
66970;SDS011;53901;51.466;-2.588;2023-05-29T06:13:48;18.05;;;3.33;;
66970;SDS011;53901;51.466;-2.588;2023-05-29T06:16:14;15.93;;;2.95;;
66970;SDS011;53901;51.466;-2.588;2023-05-29T06:18:39;13.70;;;2.47;;
66970;SDS011;53901;51.466;-2.588;2023-05-29T06:21:05;15.00;;;2.78;;
66970;SDS011;53901;51.466;-2.588;2023-05-29T06:23:32;16.10;;;2.53;;
66970;SDS011;53901;51.466;-2.588;2023-05-29T06:25:58;10.55;;;2.17;;
66970;SDS011;53901;51.466;-2.588;2023-05-29T06:28:24;11.48;;;2.42;;
66970;SDS011;53901;51.466;-2.588;2023-05-29T06:30:49;12.60;;;3.20;;
66970;SDS011;53901;51.466;-2.588;2023-05-29T06:33:16;10.00;;;2.78;;
66970;SDS011;53901;51.466;-2.588;2023-05-29T06:35:41;8.68;;;2.70;;
66970;SDS011;53901;51.466;-2.588;2023-05-29T06:38:06;8.30;;;2.20;;
66970;SDS011;53901;51.466;-2.588;2023-05-29T06:40:32;8.82;;;2.10;;
66970;SDS011;53901;51.466;-2.588;2023-05-29T06:42:57;10.20;;;2.60;;
66970;SDS011;53901;51.466;-2.588;2023-05-29T06:45:22;9.48;;;2.30;;
66970;SDS011;53901;51.466;-2.588;2023-05-29T06:47:48;11.98;;;2.45;;
66970;SDS011;53901;51.466;-2.588;2023-05-29T06:50:13;10.35;;;2.22;;
66970;SDS011;53901;51.466;-2.588;2023-05-29T06:52:39;8.48;;;2.65;;
66970;SDS011;53901;51.466;-2.588;2023-05-29T06:55:05;13.75;;;2.92;;
66970;SDS011;53901;51.466;-2.588;2023-05-29T06:57:31;8.27;;;2.83;;
66970;SDS011;53901;51.466;-2.588;2023-05-29T06:59:57;8.13;;;2.13;;
66970;SDS011;53901;51.466;-2.588;2023-05-29T07:02:22;10.43;;;2.63;;
66970;SDS011;53901;51.466;-2.588;2023-05-29T07:04:48;7.72;;;2.10;;
66970;SDS011;53901;51.466;-2.588;2023-05-29T07:07:13;13.10;;;2.30;;
66970;SDS011;53901;51.466;-2.588;2023-05-29T07:09:39;9.27;;;2.25;;
66970;SDS011;53901;51.466;-2.588;2023-05-29T07:12:04;8.23;;;1.70;;
66970;SDS011;53901;51.466;-2.588;2023-05-29T07:14:30;6.78;;;1.95;;
66970;SDS011;53901;51.466;-2.588;2023-05-29T07:16:56;6.07;;;2.00;;
66970;SDS011;53901;51.466;-2.588;2023-05-29T07:19:21;8.75;;;1.98;;
66970;SDS011;53901;51.466;-2.588;2023-05-29T07:21:46;9.35;;;2.20;;
66970;SDS011;53901;51.466;-2.588;2023-05-29T07:24:12;10.07;;;2.00;;
66970;SDS011;53901;51.466;-2.588;2023-05-29T07:26:37;6.47;;;1.65;;
66970;SDS011;53901;51.466;-2.588;2023-05-29T07:29:03;9.02;;;1.95;;
66970;SDS011;53901;51.466;-2.588;2023-05-29T07:31:28;9.70;;;2.08;;
66970;SDS011;53901;51.466;-2.588;2023-05-29T07:33:54;9.15;;;1.88;;
66970;SDS011;53901;51.466;-2.588;2023-05-29T07:36:20;10.07;;;1.70;;
66970;SDS011;53901;51.466;-2.588;2023-05-29T07:38:46;7.50;;;1.85;;
66970;SDS011;53901;51.466;-2.588;2023-05-29T07:41:11;16.88;;;3.00;;
66970;SDS011;53901;51.466;-2.588;2023-05-29T07:43:37;9.00;;;2.10;;
66970;SDS011;53901;51.466;-2.588;2023-05-29T07:46:02;8.23;;;1.60;;
66970;SDS011;53901;51.466;-2.588;2023-05-29T07:48:28;10.18;;;2.20;;
66970;SDS011;53901;51.466;-2.588;2023-05-29T07:50:54;9.77;;;2.28;;
66970;SDS011;53901;51.466;-2.588;2023-05-29T07:53:19;6.72;;;1.92;;
66970;SDS011;53901;51.466;-2.588;2023-05-29T07:55:45;8.45;;;2.08;;
66970;SDS011;53901;51.466;-2.588;2023-05-29T07:58:10;5.63;;;2.00;;
66970;SDS011;53901;51.466;-2.588;2023-05-29T08:00:36;11.18;;;2.38;;
66970;SDS011;53901;51.466;-2.588;2023-05-29T08:03:03;5.50;;;1.88;;
66970;SDS011;53901;51.466;-2.588;2023-05-29T08:05:29;7.85;;;2.47;;
66970;SDS011;53901;51.466;-2.588;2023-05-29T08:07:54;7.00;;;2.00;;
66970;SDS011;53901;51.466;-2.588;2023-05-29T08:10:20;7.45;;;2.42;;
66970;SDS011;53901;51.466;-2.588;2023-05-29T08:12:45;5.28;;;2.30;;
66970;SDS011;53901;51.466;-2.588;2023-05-29T08:15:11;9.60;;;2.80;;
66970;SDS011;53901;51.466;-2.588;2023-05-29T08:17:37;9.20;;;2.80;;
66970;SDS011;53901;51.466;-2.588;2023-05-29T08:20:02;7.35;;;1.67;;
66970;SDS011;53901;51.466;-2.588;2023-05-29T08:22:31;6.75;;;2.47;;
66970;SDS011;53901;51.466;-2.588;2023-05-29T08:24:58;5.55;;;1.88;;
66970;SDS011;53901;51.466;-2.588;2023-05-29T08:27:24;6.47;;;2.25;;
66970;SDS011;53901;51.466;-2.588;2023-05-29T08:29:49;5.03;;;2.25;;
66970;SDS011;53901;51.466;-2.588;2023-05-29T08:32:14;7.10;;;2.53;;
66970;SDS011;53901;51.466;-2.588;2023-05-29T08:34:40;8.15;;;2.63;;
66970;SDS011;53901;51.466;-2.588;2023-05-29T08:37:06;6.57;;;3.28;;
66970;SDS011;53901;51.466;-2.588;2023-05-29T08:39:32;7.70;;;2.78;;
66970;SDS011;53901;51.466;-2.588;2023-05-29T08:41:59;6.55;;;2.55;;
66970;SDS011;53901;51.466;-2.588;2023-05-29T08:44:29;9.77;;;2.63;;
66970;SDS011;53901;51.466;-2.588;2023-05-29T08:46:55;7.38;;;2.45;;
66970;SDS011;53901;51.466;-2.588;2023-05-29T08:49:21;6.47;;;2.40;;
66970;SDS011;53901;51.466;-2.588;2023-05-29T08:51:47;6.78;;;2.25;;
66970;SDS011;53901;51.466;-2.588;2023-05-29T08:54:15;8.95;;;2.38;;
66970;SDS011;53901;51.466;-2.588;2023-05-29T08:56:41;7.88;;;2.72;;
66970;SDS011;53901;51.466;-2.588;2023-05-29T08:59:07;7.45;;;2.42;;
66970;SDS011;53901;51.466;-2.588;2023-05-29T09:01:33;8.75;;;2.40;;
66970;SDS011;53901;51.466;-2.588;2023-05-29T09:04:00;6.70;;;2.10;;
66970;SDS011;53901;51.466;-2.588;2023-05-29T09:06:26;6.60;;;1.90;;
66970;SDS011;53901;51.466;-2.588;2023-05-29T09:08:51;7.13;;;2.08;;
66970;SDS011;53901;51.466;-2.588;2023-05-29T09:11:17;7.85;;;2.30;;
66970;SDS011;53901;51.466;-2.588;2023-05-29T09:13:43;7.03;;;1.92;;
66970;SDS011;53901;51.466;-2.588;2023-05-29T09:16:09;9.05;;;2.20;;
66970;SDS011;53901;51.466;-2.588;2023-05-29T09:18:34;7.72;;;2.30;;
66970;SDS011;53901;51.466;-2.588;2023-05-29T09:21:00;5.70;;;2.00;;
66970;SDS011;53901;51.466;-2.588;2023-05-29T09:23:33;6.22;;;2.17;;
66970;SDS011;53901;51.466;-2.588;2023-05-29T09:26:01;5.18;;;2.10;;
66970;SDS011;53901;51.466;-2.588;2023-05-29T09:28:27;4.95;;;1.70;;
66970;SDS011;53901;51.466;-2.588;2023-05-29T09:30:56;6.13;;;1.77;;
66970;SDS011;53901;51.466;-2.588;2023-05-29T09:33:22;8.52;;;2.33;;
66970;SDS011;53901;51.466;-2.588;2023-05-29T09:35:48;11.48;;;2.40;;
66970;SDS011;53901;51.466;-2.588;2023-05-29T09:38:15;6.22;;;2.00;;
66970;SDS011;53901;51.466;-2.588;2023-05-29T09:40:41;7.38;;;1.92;;
66970;SDS011;53901;51.466;-2.588;2023-05-29T09:43:14;10.73;;;2.42;;
66970;SDS011;53901;51.466;-2.588;2023-05-29T09:45:42;17.38;;;7.57;;
66970;SDS011;53901;51.466;-2.588;2023-05-29T09:48:11;5.82;;;1.80;;
66970;SDS011;53901;51.466;-2.588;2023-05-29T09:50:38;6.78;;;1.80;;
66970;SDS011;53901;51.466;-2.588;2023-05-29T09:53:07;5.32;;;1.58;;
66970;SDS011;53901;51.466;-2.588;2023-05-29T09:55:41;6.35;;;1.95;;
66970;SDS011;53901;51.466;-2.588;2023-05-29T09:58:07;7.90;;;2.20;;
66970;SDS011;53901;51.466;-2.588;2023-05-29T10:00:33;7.78;;;2.22;;
66970;SDS011;53901;51.466;-2.588;2023-05-29T10:02:58;8.23;;;2.15;;
66970;SDS011;53901;51.466;-2.588;2023-05-29T10:05:24;9.10;;;2.40;;
66970;SDS011;53901;51.466;-2.588;2023-05-29T10:07:50;6.07;;;2.00;;
66970;SDS011;53901;51.466;-2.588;2023-05-29T10:10:18;8.18;;;2.40;;
66970;SDS011;53901;51.466;-2.588;2023-05-29T10:12:45;6.15;;;2.25;;
66970;SDS011;53901;51.466;-2.588;2023-05-29T10:15:13;5.45;;;1.90;;
66970;SDS011;53901;51.466;-2.588;2023-05-29T10:17:44;5.90;;;2.40;;
66970;SDS011;53901;51.466;-2.588;2023-05-29T10:20:19;5.50;;;2.38;;
66970;SDS011;53901;51.466;-2.588;2023-05-29T10:22:47;7.10;;;2.13;;
66970;SDS011;53901;51.466;-2.588;2023-05-29T10:25:13;5.28;;;2.22;;
66970;SDS011;53901;51.466;-2.588;2023-05-29T10:27:40;9.57;;;2.20;;
66970;SDS011;53901;51.466;-2.588;2023-05-29T10:32:42;3.95;;;1.60;;
66970;SDS011;53901;51.466;-2.588;2023-05-29T10:35:22;6.43;;;1.60;;
66970;SDS011;53901;51.466;-2.588;2023-05-29T10:37:54;6.47;;;1.92;;
66970;SDS011;53901;51.466;-2.588;2023-05-29T10:40:43;6.40;;;1.85;;
66970;SDS011;53901;51.466;-2.588;2023-05-29T10:43:09;2.78;;;1.42;;
66970;SDS011;53901;51.466;-2.588;2023-05-29T10:45:55;5.05;;;1.60;;
66970;SDS011;53901;51.466;-2.588;2023-05-29T10:50:53;5.18;;;1.50;;
66970;SDS011;53901;51.466;-2.588;2023-05-29T10:53:24;5.75;;;1.65;;
66970;SDS011;53901;51.466;-2.588;2023-05-29T10:55:51;6.63;;;1.88;;
66970;SDS011;53901;51.466;-2.588;2023-05-29T10:58:23;7.72;;;2.20;;
66970;SDS011;53901;51.466;-2.588;2023-05-29T11:00:50;6.18;;;1.70;;
66970;SDS011;53901;51.466;-2.588;2023-05-29T11:03:22;5.93;;;1.83;;
66970;SDS011;53901;51.466;-2.588;2023-05-29T11:06:03;7.85;;;1.98;;
66970;SDS011;53901;51.466;-2.588;2023-05-29T11:11:11;4.65;;;1.90;;
66970;SDS011;53901;51.466;-2.588;2023-05-29T11:13:39;6.88;;;1.73;;
66970;SDS011;53901;51.466;-2.588;2023-05-29T11:18:50;7.25;;;1.80;;
66970;SDS011;53901;51.466;-2.588;2023-05-29T11:23:51;4.55;;;1.50;;
66970;SDS011;53901;51.466;-2.588;2023-05-29T11:26:18;7.60;;;1.55;;
66970;SDS011;53901;51.466;-2.588;2023-05-29T11:28:44;5.55;;;1.70;;
66970;SDS011;53901;51.466;-2.588;2023-05-29T11:31:10;8.60;;;2.20;;
66970;SDS011;53901;51.466;-2.588;2023-05-29T11:33:39;6.97;;;1.88;;
66970;SDS011;53901;51.466;-2.588;2023-05-29T11:36:08;8.85;;;2.78;;
66970;SDS011;53901;51.466;-2.588;2023-05-29T11:38:35;6.53;;;1.70;;
66970;SDS011;53901;51.466;-2.588;2023-05-29T11:41:01;7.72;;;2.90;;
66970;SDS011;53901;51.466;-2.588;2023-05-29T11:43:28;6.82;;;2.05;;
66970;SDS011;53901;51.466;-2.588;2023-05-29T11:45:53;9.27;;;2.00;;
66970;SDS011;53901;51.466;-2.588;2023-05-29T11:48:19;7.57;;;2.03;;
66970;SDS011;53901;51.466;-2.588;2023-05-29T11:50:45;6.22;;;1.75;;
66970;SDS011;53901;51.466;-2.588;2023-05-29T11:53:11;5.82;;;2.13;;
66970;SDS011;53901;51.466;-2.588;2023-05-29T11:55:38;5.38;;;2.15;;
66970;SDS011;53901;51.466;-2.588;2023-05-29T11:58:04;6.95;;;2.22;;
66970;SDS011;53901;51.466;-2.588;2023-05-29T12:00:31;4.50;;;1.80;;
66970;SDS011;53901;51.466;-2.588;2023-05-29T12:03:01;2.80;;;1.50;;
66970;SDS011;53901;51.466;-2.588;2023-05-29T12:05:28;10.20;;;1.75;;
66970;SDS011;53901;51.466;-2.588;2023-05-29T12:07:55;5.97;;;1.73;;
66970;SDS011;53901;51.466;-2.588;2023-05-29T12:10:22;5.65;;;1.67;;
66970;SDS011;53901;51.466;-2.588;2023-05-29T12:12:50;9.93;;;1.90;;
66970;SDS011;53901;51.466;-2.588;2023-05-29T12:15:20;7.07;;;1.98;;
66970;SDS011;53901;51.466;-2.588;2023-05-29T12:17:47;7.53;;;2.25;;
66970;SDS011;53901;51.466;-2.588;2023-05-29T12:20:13;6.63;;;2.17;;
66970;SDS011;53901;51.466;-2.588;2023-05-29T12:22:39;7.68;;;2.42;;
66970;SDS011;53901;51.466;-2.588;2023-05-29T12:25:10;7.32;;;2.00;;
66970;SDS011;53901;51.466;-2.588;2023-05-29T12:27:40;5.15;;;1.45;;
66970;SDS011;53901;51.466;-2.588;2023-05-29T12:30:20;8.18;;;1.80;;
66970;SDS011;53901;51.466;-2.588;2023-05-29T12:32:47;9.82;;;2.95;;
66970;SDS011;53901;51.466;-2.588;2023-05-29T12:35:15;6.93;;;1.98;;
66970;SDS011;53901;51.466;-2.588;2023-05-29T12:37:43;6.22;;;1.70;;
66970;SDS011;53901;51.466;-2.588;2023-05-29T12:42:41;7.20;;;2.00;;
66970;SDS011;53901;51.466;-2.588;2023-05-29T12:45:07;5.65;;;1.80;;
66970;SDS011;53901;51.466;-2.588;2023-05-29T12:47:34;4.88;;;1.90;;
66970;SDS011;53901;51.466;-2.588;2023-05-29T12:50:19;6.45;;;2.00;;
66970;SDS011;53901;51.466;-2.588;2023-05-29T12:55:22;9.13;;;1.80;;
66970;SDS011;53901;51.466;-2.588;2023-05-29T12:57:48;7.38;;;1.90;;
66970;SDS011;53901;51.466;-2.588;2023-05-29T13:00:13;7.43;;;2.10;;
66970;SDS011;53901;51.466;-2.588;2023-05-29T13:02:39;5.55;;;2.05;;
66970;SDS011;53901;51.466;-2.588;2023-05-29T13:05:05;9.55;;;1.90;;
66970;SDS011;53901;51.466;-2.588;2023-05-29T13:07:31;6.40;;;2.05;;
66970;SDS011;53901;51.466;-2.588;2023-05-29T13:09:57;7.38;;;2.28;;
66970;SDS011;53901;51.466;-2.588;2023-05-29T13:12:22;6.15;;;1.75;;
66970;SDS011;53901;51.466;-2.588;2023-05-29T13:14:48;8.30;;;1.70;;
66970;SDS011;53901;51.466;-2.588;2023-05-29T13:17:13;6.32;;;1.98;;
66970;SDS011;53901;51.466;-2.588;2023-05-29T13:19:38;5.07;;;1.67;;
66970;SDS011;53901;51.466;-2.588;2023-05-29T13:22:04;7.28;;;2.00;;
66970;SDS011;53901;51.466;-2.588;2023-05-29T13:24:29;6.85;;;2.00;;
66970;SDS011;53901;51.466;-2.588;2023-05-29T13:26:55;10.70;;;2.22;;
66970;SDS011;53901;51.466;-2.588;2023-05-29T13:29:20;5.70;;;2.10;;
66970;SDS011;53901;51.466;-2.588;2023-05-29T13:31:45;8.20;;;1.90;;
66970;SDS011;53901;51.466;-2.588;2023-05-29T13:34:11;4.38;;;1.80;;
66970;SDS011;53901;51.466;-2.588;2023-05-29T13:36:36;9.90;;;2.17;;
66970;SDS011;53901;51.466;-2.588;2023-05-29T13:39:02;4.25;;;1.65;;
66970;SDS011;53901;51.466;-2.588;2023-05-29T13:41:29;9.13;;;2.45;;
66970;SDS011;53901;51.466;-2.588;2023-05-29T13:43:55;9.13;;;2.30;;
66970;SDS011;53901;51.466;-2.588;2023-05-29T13:46:21;10.48;;;2.40;;
66970;SDS011;53901;51.466;-2.588;2023-05-29T13:48:46;7.25;;;2.42;;
66970;SDS011;53901;51.466;-2.588;2023-05-29T13:51:11;8.27;;;2.30;;
66970;SDS011;53901;51.466;-2.588;2023-05-29T13:53:37;8.30;;;2.22;;
66970;SDS011;53901;51.466;-2.588;2023-05-29T13:56:02;5.55;;;2.38;;
66970;SDS011;53901;51.466;-2.588;2023-05-29T13:58:27;7.55;;;2.17;;
66970;SDS011;53901;51.466;-2.588;2023-05-29T14:00:53;6.20;;;2.00;;
66970;SDS011;53901;51.466;-2.588;2023-05-29T14:03:19;9.38;;;2.30;;
66970;SDS011;53901;51.466;-2.588;2023-05-29T14:05:46;7.60;;;2.30;;
66970;SDS011;53901;51.466;-2.588;2023-05-29T14:08:11;12.30;;;2.15;;
66970;SDS011;53901;51.466;-2.588;2023-05-29T14:10:37;8.15;;;2.40;;
66970;SDS011;53901;51.466;-2.588;2023-05-29T14:13:02;4.43;;;2.00;;
66970;SDS011;53901;51.466;-2.588;2023-05-29T14:15:27;8.35;;;2.55;;
66970;SDS011;53901;51.466;-2.588;2023-05-29T14:17:53;6.20;;;1.90;;
66970;SDS011;53901;51.466;-2.588;2023-05-29T14:20:18;6.07;;;2.03;;
66970;SDS011;53901;51.466;-2.588;2023-05-29T14:22:44;8.13;;;2.42;;
66970;SDS011;53901;51.466;-2.588;2023-05-29T14:25:09;6.28;;;2.28;;
66970;SDS011;53901;51.466;-2.588;2023-05-29T14:27:34;8.05;;;2.20;;
66970;SDS011;53901;51.466;-2.588;2023-05-29T14:30:00;6.03;;;1.95;;
66970;SDS011;53901;51.466;-2.588;2023-05-29T14:32:27;4.63;;;2.05;;
66970;SDS011;53901;51.466;-2.588;2023-05-29T14:34:53;8.93;;;1.98;;
66970;SDS011;53901;51.466;-2.588;2023-05-29T14:37:18;5.22;;;2.17;;
66970;SDS011;53901;51.466;-2.588;2023-05-29T14:39:44;6.63;;;2.55;;
66970;SDS011;53901;51.466;-2.588;2023-05-29T14:42:09;6.07;;;2.13;;
66970;SDS011;53901;51.466;-2.588;2023-05-29T14:44:35;8.10;;;2.13;;
66970;SDS011;53901;51.466;-2.588;2023-05-29T14:47:00;6.93;;;2.80;;
66970;SDS011;53901;51.466;-2.588;2023-05-29T14:49:26;6.85;;;2.30;;
66970;SDS011;53901;51.466;-2.588;2023-05-29T14:51:54;7.57;;;1.95;;
66970;SDS011;53901;51.466;-2.588;2023-05-29T14:54:20;6.07;;;2.10;;